Latest Weather Observations for Bowen Airport AWS

IDQ60801

Issued at 11:32 am EST Tuesday 21 May 2024 (issued every 10 minutes, with the page automatically refreshed every 10 minutes)

About weather observations | Map of weather stations | Latest weather observations for QLD | Other Formats
Station Details ID: 033327 Name: BOWEN AIRPORT AWS Lat: -20.02 Lon: 148.21 Height: 5.9 m
Data from the previous 72 hours. | See also: Recent months at Bowen Airport AWS
Date/Time
EST
Temp
°C
App
Temp
°C
Dew
Point
°C
Rel
Hum
%
Delta-T
°C
Wind Press
QNH
hPa
Press
MSL
hPa
Rain since
9am
mm
Dir  Spd
km/h
Gust
km/h
Spd
kts
Gust
kts
21/11:30am 25.0 21.4 13.2 48 6.9 SE 24 30 13 16 1018.1 1018.0 0.0
21/11:00am 24.3 20.5 13.5 51 6.3 SE 26 32 14 17 1018.5 1018.4 0.0
21/10:30am 24.7 21.2 12.3 46 7.1 SE 22 32 12 17 1018.7 1018.6 0.0
21/10:00am 23.7 19.2 11.4 46 6.9 SE 26 33 14 18 1019.0 1018.9 0.0
21/09:30am 23.1 18.7 9.1 41 7.5 SE 22 28 12 15 1018.9 1018.8 0.0
21/09:00am 22.6 18.1 8.7 41 7.4 SE 22 32 12 17 1019.0 1018.9 0.0
21/08:30am 21.8 18.2 8.3 42 7.1 SE 17 24 9 13 1019.1 1019.0 0.0
21/08:00am 20.0 18.5 10.4 54 5.2 SSE 9 17 5 9 1019.0 1018.9 0.0
21/07:58am 20.3 18.6 9.8 51 5.6 S 9 17 5 9 1019.0 1018.9 0.0
21/07:30am 15.3 14.0 10.1 71 2.7 SW 7 9 4 5 1018.9 1018.8 0.0
21/07:00am 12.5 11.1 9.5 82 1.5 SW 7 9 4 5 1018.5 1018.4 0.0
21/06:30am 11.8 9.9 9.2 84 1.3 SW 9 11 5 6 1018.3 1018.2 0.0
21/06:00am 12.2 10.3 9.2 82 1.5 SW 9 11 5 6 1018.1 1018.0 0.0
21/05:30am 12.5 11.1 9.5 82 1.5 SW 7 9 4 5 1017.7 1017.6 0.0
21/05:00am 12.6 10.5 9.8 83 1.4 SW 11 15 6 8 1017.6 1017.5 0.0
21/04:30am 14.1 12.4 9.9 76 2.2 WSW 9 9 5 5 1017.6 1017.5 0.0
21/04:00am 14.1 12.7 9.7 75 2.3 SW 7 9 4 5 1017.4 1017.3 0.0
21/03:30am 15.3 13.8 10.5 73 2.5 SW 9 11 5 6 1017.6 1017.5 0.0
21/03:00am 17.5 16.0 10.6 64 3.7 SSE 9 15 5 8 1017.7 1017.6 0.0
21/02:30am 17.8 16.2 11.6 67 3.4 SSE 11 17 6 9 1017.6 1017.5 0.0
21/02:00am 14.8 13.7 10.8 77 2.1 S 7 9 4 5 1018.0 1017.9 0.0
21/01:30am 14.6 15.0 11.2 80 1.8 CALM 0 6 0 3 1018.1 1018.0 0.0
21/01:00am 14.7 14.0 11.5 81 1.7 SW 6 6 3 3 1018.4 1018.3 0.0
21/12:30am 14.9 13.8 10.7 76 2.2 SW 7 9 4 5 1018.4 1018.3 0.0
21/12:00am 17.5 16.6 10.6 64 3.7 S 6 13 3 7 1018.6 1018.5 0.0
 
Date/Time
EST
Temp
°C
App
Temp
°C
Dew
Point
°C
Rel
Hum
%
Delta-T
°C
Wind Press
QNH
hPa
Press
MSL
hPa
Rain since
9am
mm
Dir  Spd
km/h
Gust
km/h
Spd
kts
Gust
kts
20/11:30pm 18.6 16.5 11.2 62 4.0 SSE 13 19 7 10 1018.6 1018.5 0.0
20/11:00pm 19.5 17.0 12.3 63 4.0 SSE 17 20 9 11 1018.7 1018.6 0.0
20/10:30pm 19.9 17.6 13.1 65 3.9 SSE 17 20 9 11 1019.0 1018.9 0.0
20/10:00pm 20.2 17.5 13.6 66 3.8 SE 20 26 11 14 1018.9 1018.8 0.0
20/09:30pm 20.0 18.3 13.5 66 3.7 SSE 15 20 8 11 1019.0 1018.9 0.0
20/09:00pm 19.7 18.4 12.5 63 4.0 SSE 11 17 6 9 1019.0 1018.9 0.0
20/08:30pm 19.9 18.0 11.9 60 4.4 SE 13 17 7 9 1018.6 1018.5 0.0
20/08:00pm 19.4 17.8 11.4 60 4.4 SSE 11 13 6 7 1018.6 1018.5 0.0
20/07:30pm 21.0 18.1 12.2 57 4.9 SE 19 22 10 12 1018.0 1017.9 0.0
20/07:00pm 21.2 18.0 11.8 55 5.2 SE 20 24 11 13 1017.6 1017.5 0.0
20/06:30pm 21.6 19.2 12.5 56 5.2 SE 17 20 9 11 1017.3 1017.2 0.0
20/06:00pm 22.0 20.8 13.9 60 4.7 SE 13 17 7 9 1017.0 1016.9 0.0
20/05:30pm 22.8 21.0 13.3 55 5.5 ESE 15 20 8 11 1016.7 1016.6 0.0
20/05:00pm 23.2 21.1 13.7 55 5.5 ESE 17 24 9 13 1016.3 1016.2 0.0
20/04:30pm 23.8 21.3 13.4 52 6.0 ESE 19 24 10 13 1016.3 1016.2 0.0
20/04:00pm 23.8 20.7 13.4 52 6.0 SE 22 28 12 15 1016.1 1016.0 0.0
20/03:30pm 24.1 20.4 12.7 49 6.6 ESE 24 30 13 16 1015.8 1015.7 0.0
20/03:00pm 24.4 21.1 12.7 48 6.7 ESE 22 30 12 16 1015.8 1015.7 0.0
20/02:30pm 25.2 21.3 12.1 44 7.5 SE 24 33 13 18 1015.7 1015.6 0.0
20/02:00pm 25.5 21.6 12.0 43 7.7 ESE 24 33 13 18 1015.6 1015.5 0.0
20/01:30pm 25.8 21.8 10.4 38 8.6 SE 22 28 12 15 1015.7 1015.6 0.0
20/01:00pm 24.3 19.7 9.5 39 8.0 SE 24 33 13 18 1016.2 1016.1 0.0
20/12:30pm 23.9 18.7 10.2 42 7.5 SE 28 33 15 18 1016.7 1016.6 0.0
20/12:00pm 24.3 19.8 10.2 41 7.8 SE 24 32 13 17 1017.0 1016.9 0.0
20/11:30am 23.3 18.9 10.4 44 7.1 SE 24 33 13 18 1017.5 1017.4 0.0
20/11:00am 22.6 17.1 9.0 42 7.3 SSE 28 37 15 20 1017.9 1017.8 0.0
20/10:30am 21.9 15.8 8.4 42 7.1 SE 30 37 16 20 1018.5 1018.4 0.0
20/10:00am 21.5 17.0 8.4 43 6.9 SE 22 33 12 18 1018.8 1018.7 0.0
20/09:30am 20.7 16.2 8.4 45 6.4 SSE 22 28 12 15 1018.8 1018.7 0.0
20/09:00am 18.8 16.1 7.3 47 5.8 SSW 11 15 6 8 1018.9 1018.8 0.0
20/08:30am 18.4 15.7 7.2 48 5.6 SW 11 13 6 7 1018.6 1018.5 0.0
20/08:00am 14.4 11.2 5.2 54 4.3 SW 11 13 6 7 1018.6 1018.5 0.0
20/07:30am 13.1 9.9 5.0 58 3.7 SW 11 15 6 8 1018.2 1018.1 0.0
20/07:00am 11.9 8.7 4.9 62 3.2 SW 11 13 6 7 1017.8 1017.7 0.0
20/06:30am 11.7 8.4 4.7 62 3.2 SW 11 15 6 8 1017.6 1017.5 0.0
20/06:00am 11.5 7.8 4.7 63 3.1 SW 13 17 7 9 1017.3 1017.2 0.0
20/05:30am 11.8 8.2 4.8 62 3.2 WSW 13 15 7 8 1016.9 1016.8 0.0
20/05:00am 11.7 8.5 4.9 63 3.1 WSW 11 13 6 7 1016.6 1016.5 0.0
20/04:30am 11.4 8.1 4.8 64 3.0 SW 11 13 6 7 1016.8 1016.7 0.0
20/04:00am 11.1 8.2 4.8 65 2.8 SW 9 11 5 6 1017.0 1016.9 0.0
20/03:30am 10.8 7.6 5.1 68 2.6 SW 11 13 6 7 1017.0 1016.9 0.0
20/03:00am 10.6 7.5 5.6 71 2.3 SW 11 13 6 7 1017.0 1016.9 0.0
20/02:30am 11.0 7.6 5.7 70 2.4 SW 13 15 7 8 1017.2 1017.1 0.0
20/02:00am 11.3 8.3 5.8 69 2.5 SW 11 15 6 8 1017.4 1017.3 0.0
20/01:30am 11.5 9.2 5.6 67 2.7 WSW 7 9 4 5 1017.7 1017.6 0.0
20/01:00am 11.8 8.8 5.9 67 2.7 WSW 11 11 6 6 1017.8 1017.7 0.0
20/12:30am 12.3 9.6 5.7 64 3.1 WSW 9 11 5 6 1017.8 1017.7 0.0
20/12:00am 12.0 9.8 5.4 64 3.0 WSW 6 7 3 4 1018.0 1017.9 0.0
 
Date/Time
EST
Temp
°C
App
Temp
°C
Dew
Point
°C
Rel
Hum
%
Delta-T
°C
Wind Press
QNH
hPa
Press
MSL
hPa
Rain since
9am
mm
Dir  Spd
km/h
Gust
km/h
Spd
kts
Gust
kts
19/11:30pm 12.3 9.9 5.2 62 3.3 SW 7 9 4 5 1018.0 1017.9 0.0
19/11:00pm 12.7 10.8 4.9 59 3.6 SW 4 6 2 3 1018.0 1017.9 0.0
19/10:30pm 12.9 9.6 4.8 58 3.7 SW 11 13 6 7 1017.9 1017.8 0.0
19/10:00pm 13.5 9.8 4.6 55 4.1 SSW 13 15 7 8 1018.0 1017.9 0.0
19/09:30pm 14.1 10.8 4.7 53 4.4 S 11 13 6 7 1017.9 1017.8 0.0
19/09:00pm 16.3 12.8 5.3 48 5.2 SSE 13 17 7 9 1017.6 1017.5 0.0
19/08:30pm 16.6 13.2 5.9 49 5.2 SSE 13 15 7 8 1017.6 1017.5 0.0
19/08:00pm 17.7 14.7 7.7 52 5.1 SSE 13 15 7 8 1017.4 1017.3 0.0
19/07:30pm 19.6 16.1 8.9 50 5.6 SE 17 24 9 13 1016.9 1016.8 0.0
19/07:00pm 19.9 14.8 7.6 45 6.3 SE 24 33 13 18 1016.5 1016.4 0.0
19/06:30pm 20.1 15.3 7.5 44 6.5 SE 22 32 12 17 1015.9 1015.8 0.0
19/06:00pm 20.6 15.0 7.2 42 6.8 SE 26 35 14 19 1015.5 1015.4 0.0
19/05:30pm 20.9 14.6 7.5 42 6.9 SE 30 41 16 22 1014.8 1014.7 0.0
19/05:00pm 21.5 15.2 7.3 40 7.3 SE 30 37 16 20 1014.4 1014.3 0.0
19/04:30pm 22.0 15.5 6.3 36 8.0 SE 30 37 16 20 1014.1 1014.0 0.0
19/04:00pm 22.8 16.4 7.0 36 8.2 SE 30 35 16 19 1013.7 1013.6 0.0
19/03:30pm 23.4 17.7 6.7 34 8.6 SE 26 33 14 18 1013.5 1013.4 0.0
19/03:00pm 23.5 18.1 8.0 37 8.2 ESE 26 35 14 19 1013.5 1013.4 0.0
19/02:30pm 23.8 18.8 8.2 37 8.3 ESE 24 33 13 18 1013.4 1013.3 0.0
19/02:00pm 24.6 18.4 7.7 34 8.9 SE 30 35 16 19 1013.3 1013.2 0.0
19/01:30pm 24.6 18.5 6.8 32 9.3 ESE 28 35 15 19 1013.6 1013.5 0.0
19/01:00pm 24.5 18.6 5.8 30 9.5 ESE 26 33 14 18 1014.0 1013.9 0.0
19/12:30pm 24.9 19.4 7.5 33 9.2 ESE 26 33 14 18 1014.7 1014.6 0.0
19/12:00pm 24.3 19.7 9.5 39 8.1 ESE 24 32 13 17 1015.3 1015.2 0.0
19/11:30am 23.6 18.8 10.3 43 7.3 ESE 26 30 14 16 1016.0 1015.9 0.0
19/11:00am 23.0 19.2 9.8 43 7.2 E 20 24 11 13 1016.6 1016.5 0.0
19/10:30am 22.7 18.9 9.8 44 7.0 ESE 20 26 11 14 1016.9 1016.8 0.0
19/10:00am 22.2 18.5 9.4 44 6.9 ESE 19 24 10 13 1017.0 1016.9 0.0
19/09:30am 21.1 17.1 8.4 44 6.7 SE 19 22 10 12 1017.1 1017.0 0.0
19/09:00am 20.4 15.7 9.3 49 5.9 SE 24 32 13 17 1016.9 1016.8 0.0
19/08:30am 19.8 14.0 9.4 51 5.5 SE 30 37 16 20 1016.6 1016.5 0.0
19/08:00am 18.8 16.7 9.6 55 4.9 SSW 11 28 6 15 1016.5 1016.4 0.0
19/07:30am 15.0 13.5 11.8 81 1.7 SSW 11 13 6 7 1016.4 1016.3 0.0
19/07:00am 13.3 12.0 11.4 88 1.0 SSW 9 13 5 7 1016.0 1015.9 0.0
19/06:30am 13.1 12.2 11.2 88 1.0 SSW 7 11 4 6 1015.9 1015.8 0.0
19/06:00am 13.1 12.0 10.6 85 1.3 S 7 9 4 5 1015.3 1015.2 0.0
19/05:30am 16.5 14.9 12.7 78 2.1 SSE 13 17 7 9 1014.7 1014.6 0.0
19/05:00am 13.6 13.1 12.5 93 0.6 SSW 7 9 4 5 1014.5 1014.4 0.0
19/04:30am 13.8 14.3 12.9 94 0.5 SW 2 6 1 3 1014.4 1014.3 0.0
19/04:00am 13.9 13.4 12.8 93 0.6 SW 7 9 4 5 1014.2 1014.1 0.0
19/03:30am 13.9 13.1 12.8 93 0.6 SW 9 11 5 6 1014.1 1014.0 0.0
19/03:00am 14.3 13.6 13.2 93 0.6 SW 9 11 5 6 1014.0 1013.9 0.0
19/02:30am 14.5 14.2 13.2 92 0.7 SW 7 9 4 5 1014.1 1014.0 0.0
19/02:00am 14.9 15.2 13.4 91 0.8 SW 4 4 2 2 1014.2 1014.1 0.0
19/01:30am 15.4 16.3 13.9 91 0.8 SW 2 4 1 2 1014.3 1014.2 0.0
19/01:00am 15.5 15.4 13.9 90 0.9 SW 7 7 4 4 1014.6 1014.5 0.0
19/12:30am 15.8 15.0 14.0 89 1.0 SW 11 13 6 7 1014.7 1014.6 0.0
19/12:00am 16.4 16.0 14.1 86 1.3 WSW 9 11 5 6 1014.8 1014.7 0.0
 
Date/Time
EST
Temp
°C
App
Temp
°C
Dew
Point
°C
Rel
Hum
%
Delta-T
°C
Wind Press
QNH
hPa
Press
MSL
hPa
Rain since
9am
mm
Dir  Spd
km/h
Gust
km/h
Spd
kts
Gust
kts
18/11:30pm 16.6 16.0 13.5 82 1.7 WSW 9 9 5 5 1015.1 1015.0 0.0
18/11:00pm 17.0 16.7 13.3 79 2.1 WSW 7 9 4 5 1015.3 1015.2 0.0
18/10:30pm 16.4 16.0 13.1 81 1.8 SW 7 11 4 6 1015.4 1015.3 0.0
18/10:00pm 16.5 17.0 12.8 79 2.1 SSE 2 7 1 4 1015.5 1015.4 0.0
18/09:30pm 17.7 18.5 13.8 78 2.2 SSE 2 4 1 2 1015.5 1015.4 0.0
18/09:00pm 18.3 18.4 13.8 75 2.6 SSE 6 6 3 3 1015.4 1015.3 0.0
18/08:30pm 19.8 20.1 14.6 72 3.0 SSE 6 6 3 3 1015.2 1015.1 0.0
18/08:00pm 21.4 22.1 16.1 72 3.2 SE 7 9 4 5 1015.0 1014.9 0.0
18/07:30pm 22.1 21.9 15.7 67 3.8 SE 11 17 6 9 1014.7 1014.6 0.0
18/07:00pm 23.2 22.4 16.0 64 4.4 ESE 15 20 8 11 1014.3 1014.2 0.0
18/06:30pm 23.8 23.4 18.0 70 3.6 ESE 17 22 9 12 1013.9 1013.8 0.0
18/06:00pm 24.0 23.6 18.0 69 3.8 ESE 17 20 9 11 1013.8 1013.7 0.0
18/05:30pm 24.2 23.4 17.9 68 3.9 E 19 26 10 14 1013.4 1013.3 0.0
18/05:00pm 25.0 23.8 17.5 63 4.7 E 20 28 11 15 1013.1 1013.0 0.0
18/04:30pm 26.1 25.0 17.2 58 5.5 E 19 24 10 13 1012.9 1012.8 0.0
18/04:00pm 26.8 24.5 15.8 51 6.7 E 22 30 12 16 1012.5 1012.4 0.0
18/03:30pm 27.3 24.3 14.7 46 7.6 ESE 24 30 13 16 1012.7 1012.6 0.0
18/03:00pm 27.5 24.3 14.2 44 8.0 ESE 24 32 13 17 1012.9 1012.8 0.0
18/02:30pm 27.8 24.8 14.8 45 7.9 E 24 33 13 18 1013.1 1013.0 0.0
18/02:00pm 27.8 24.7 14.4 43 8.0 E 24 33 13 18 1013.3 1013.2 0.0
18/01:30pm 27.9 24.6 14.9 45 7.9 ESE 26 32 14 17 1013.7 1013.6 0.0
18/01:00pm 27.4 24.5 15.1 47 7.5 ESE 24 30 13 16 1014.3 1014.2 0.0
18/12:30pm 27.2 23.9 14.9 47 7.4 ESE 26 33 14 18 1014.8 1014.7 0.0
18/12:00pm 27.0 24.2 15.4 49 7.1 ESE 24 33 13 18 1015.3 1015.2 0.0

Other formats

Comma delimited format used in spreadsheet applications
http://www.bom.gov.au/fwo/IDQ60801/IDQ60801.94383.axf

JavaScript Object Notation format (JSON) in row-major order
http://www.bom.gov.au/fwo/IDQ60801/IDQ60801.94383.json

Data quality

Most of these data are generated automatically and are frequently updated. Quality checks on data are not normally performed. It is possible for incorrect values to appear. Refer to information at About Latest Weather Observations and please check the disclaimer before using these data.